sensor_id;sensor_type;location;lat;lon;timestamp;pressure;altitude;pressure_sealevel;temperature;humidity
55191;BME280;41070;50.360;18.742;2023-01-25T00:01:05;100570.98;;;1.46;87.33
55191;BME280;41070;50.360;18.742;2023-01-25T00:03:32;100571.56;;;1.48;87.47
55191;BME280;41070;50.360;18.742;2023-01-25T00:06:00;100574.27;;;1.50;87.77
55191;BME280;41070;50.360;18.742;2023-01-25T00:08:28;100569.64;;;1.53;87.82
55191;BME280;41070;50.360;18.742;2023-01-25T00:11:01;100572.77;;;1.56;87.58
55191;BME280;41070;50.360;18.742;2023-01-25T00:13:29;100574.84;;;1.54;87.21
55191;BME280;41070;50.360;18.742;2023-01-25T00:16:03;100567.11;;;1.49;87.56
55191;BME280;41070;50.360;18.742;2023-01-25T00:18:31;100564.98;;;1.44;87.24
55191;BME280;41070;50.360;18.742;2023-01-25T00:20:59;100563.81;;;1.41;87.40
55191;BME280;41070;50.360;18.742;2023-01-25T00:23:27;100562.64;;;1.41;87.53
55191;BME280;41070;50.360;18.742;2023-01-25T00:25:57;100557.67;;;1.42;87.46
55191;BME280;41070;50.360;18.742;2023-01-25T00:28:25;100556.39;;;1.45;87.49
55191;BME280;41070;50.360;18.742;2023-01-25T00:30:53;100562.94;;;1.45;87.61
55191;BME280;41070;50.360;18.742;2023-01-25T00:33:49;100570.02;;;1.43;87.60
55191;BME280;41070;50.360;18.742;2023-01-25T00:36:38;100575.73;;;1.43;87.60
55191;BME280;41070;50.360;18.742;2023-01-25T00:39:11;100567.28;;;1.43;87.75
55191;BME280;41070;50.360;18.742;2023-01-25T00:41:48;100564.02;;;1.41;87.94
55191;BME280;41070;50.360;18.742;2023-01-25T00:44:15;100564.02;;;1.39;87.55
55191;BME280;41070;50.360;18.742;2023-01-25T00:46:43;100563.33;;;1.35;87.30
55191;BME280;41070;50.360;18.742;2023-01-25T00:49:24;100564.05;;;1.31;87.36
55191;BME280;41070;50.360;18.742;2023-01-25T00:51:53;100561.52;;;1.27;87.67
55191;BME280;41070;50.360;18.742;2023-01-25T00:54:21;100560.20;;;1.29;88.00
55191;BME280;41070;50.360;18.742;2023-01-25T00:56:49;100563.30;;;1.33;87.97
55191;BME280;41070;50.360;18.742;2023-01-25T00:59:17;100563.55;;;1.36;88.02
55191;BME280;41070;50.360;18.742;2023-01-25T01:01:45;100564.02;;;1.38;88.28
55191;BME280;41070;50.360;18.742;2023-01-25T01:04:13;100556.46;;;1.43;88.14
55191;BME280;41070;50.360;18.742;2023-01-25T01:06:41;100552.75;;;1.45;87.86
55191;BME280;41070;50.360;18.742;2023-01-25T01:09:15;100546.83;;;1.44;87.91
55191;BME280;41070;50.360;18.742;2023-01-25T01:11:43;100540.30;;;1.44;88.10
55191;BME280;41070;50.360;18.742;2023-01-25T01:14:11;100537.92;;;1.47;88.00
55191;BME280;41070;50.360;18.742;2023-01-25T01:16:39;100530.85;;;1.50;87.79
55191;BME280;41070;50.360;18.742;2023-01-25T01:19:07;100531.11;;;1.49;87.72
55191;BME280;41070;50.360;18.742;2023-01-25T01:21:34;100526.52;;;1.49;87.50
55191;BME280;41070;50.360;18.742;2023-01-25T01:24:14;100530.33;;;1.47;87.68
55191;BME280;41070;50.360;18.742;2023-01-25T01:26:43;100529.27;;;1.47;87.85
55191;BME280;41070;50.360;18.742;2023-01-25T01:29:11;100523.77;;;1.49;87.69
55191;BME280;41070;50.360;18.742;2023-01-25T01:31:39;100522.55;;;1.51;87.99
55191;BME280;41070;50.360;18.742;2023-01-25T01:34:11;100514.92;;;1.50;87.81
55191;BME280;41070;50.360;18.742;2023-01-25T01:36:39;100515.95;;;1.52;87.31
55191;BME280;41070;50.360;18.742;2023-01-25T01:39:07;100514.48;;;1.52;87.81
55191;BME280;41070;50.360;18.742;2023-01-25T01:41:35;100511.09;;;1.53;87.52
55191;BME280;41070;50.360;18.742;2023-01-25T01:44:04;100511.40;;;1.54;87.70
55191;BME280;41070;50.360;18.742;2023-01-25T01:46:37;100510.28;;;1.53;87.54
55191;BME280;41070;50.360;18.742;2023-01-25T01:49:19;100502.27;;;1.48;87.35
55191;BME280;41070;50.360;18.742;2023-01-25T01:52:06;100497.65;;;1.44;87.37
55191;BME280;41070;50.360;18.742;2023-01-25T01:54:39;100496.26;;;1.40;87.43
55191;BME280;41070;50.360;18.742;2023-01-25T01:57:09;100490.65;;;1.39;87.42
55191;BME280;41070;50.360;18.742;2023-01-25T02:00:06;100485.73;;;1.41;87.50
55191;BME280;41070;50.360;18.742;2023-01-25T02:02:31;100478.77;;;1.44;87.59
55191;BME280;41070;50.360;18.742;2023-01-25T02:05:04;100474.11;;;1.44;87.44
55191;BME280;41070;50.360;18.742;2023-01-25T02:07:36;100472.23;;;1.44;87.39
55191;BME280;41070;50.360;18.742;2023-01-25T02:10:07;100469.64;;;1.44;87.57
55191;BME280;41070;50.360;18.742;2023-01-25T02:12:37;100471.39;;;1.47;87.74
55191;BME280;41070;50.360;18.742;2023-01-25T02:15:06;100467.11;;;1.53;87.85
55191;BME280;41070;50.360;18.742;2023-01-25T02:17:40;100466.83;;;1.58;87.73
55191;BME280;41070;50.360;18.742;2023-01-25T02:20:16;100470.02;;;1.61;87.74
55191;BME280;41070;50.360;18.742;2023-01-25T02:25:41;100464.66;;;1.66;87.43
55191;BME280;41070;50.360;18.742;2023-01-25T02:28:14;100464.69;;;1.65;87.37
55191;BME280;41070;50.360;18.742;2023-01-25T02:30:43;100462.85;;;1.65;87.28
55191;BME280;41070;50.360;18.742;2023-01-25T02:33:12;100465.34;;;1.63;87.28
55191;BME280;41070;50.360;18.742;2023-01-25T02:35:43;100466.34;;;1.63;87.10
55191;BME280;41070;50.360;18.742;2023-01-25T02:38:13;100465.74;;;1.65;87.33
55191;BME280;41070;50.360;18.742;2023-01-25T02:40:53;100464.63;;;1.68;87.55
55191;BME280;41070;50.360;18.742;2023-01-25T02:43:23;100459.54;;;1.66;87.15
55191;BME280;41070;50.360;18.742;2023-01-25T02:46:04;100463.52;;;1.64;87.39
55191;BME280;41070;50.360;18.742;2023-01-25T02:48:44;100464.58;;;1.64;87.13
55191;BME280;41070;50.360;18.742;2023-01-25T02:51:12;100467.12;;;1.65;86.96
55191;BME280;41070;50.360;18.742;2023-01-25T02:53:40;100466.50;;;1.63;87.42
55191;BME280;41070;50.360;18.742;2023-01-25T02:56:08;100466.36;;;1.64;87.38
55191;BME280;41070;50.360;18.742;2023-01-25T02:58:35;100466.85;;;1.62;87.08
55191;BME280;41070;50.360;18.742;2023-01-25T03:01:03;100463.14;;;1.61;87.10
55191;BME280;41070;50.360;18.742;2023-01-25T03:03:31;100463.04;;;1.61;87.48
55191;BME280;41070;50.360;18.742;2023-01-25T03:05:58;100464.27;;;1.63;87.24
55191;BME280;41070;50.360;18.742;2023-01-25T03:08:26;100463.43;;;1.63;87.25
55191;BME280;41070;50.360;18.742;2023-01-25T03:10:58;100459.70;;;1.64;87.21
55191;BME280;41070;50.360;18.742;2023-01-25T03:13:30;100457.77;;;1.64;87.23
55191;BME280;41070;50.360;18.742;2023-01-25T03:16:04;100458.23;;;1.64;87.30
55191;BME280;41070;50.360;18.742;2023-01-25T03:18:32;100459.36;;;1.65;87.40
55191;BME280;41070;50.360;18.742;2023-01-25T03:21:15;100453.52;;;1.66;87.46
55191;BME280;41070;50.360;18.742;2023-01-25T03:23:47;100450.66;;;1.66;87.37
55191;BME280;41070;50.360;18.742;2023-01-25T03:26:21;100447.95;;;1.67;87.46
55191;BME280;41070;50.360;18.742;2023-01-25T03:28:49;100449.04;;;1.63;87.17
55191;BME280;41070;50.360;18.742;2023-01-25T03:31:18;100453.33;;;1.64;87.33
55191;BME280;41070;50.360;18.742;2023-01-25T03:33:46;100455.86;;;1.64;87.25
55191;BME280;41070;50.360;18.742;2023-01-25T03:36:14;100454.45;;;1.65;87.43
55191;BME280;41070;50.360;18.742;2023-01-25T03:38:41;100451.63;;;1.64;87.44
55191;BME280;41070;50.360;18.742;2023-01-25T03:41:09;100450.14;;;1.65;87.62
55191;BME280;41070;50.360;18.742;2023-01-25T03:43:38;100447.16;;;1.68;88.06
55191;BME280;41070;50.360;18.742;2023-01-25T03:46:06;100446.39;;;1.69;87.33
55191;BME280;41070;50.360;18.742;2023-01-25T03:48:33;100446.43;;;1.71;87.33
55191;BME280;41070;50.360;18.742;2023-01-25T03:51:01;100448.20;;;1.73;87.95
55191;BME280;41070;50.360;18.742;2023-01-25T03:53:29;100445.20;;;1.77;87.96
55191;BME280;41070;50.360;18.742;2023-01-25T03:56:06;100445.36;;;1.77;87.77
55191;BME280;41070;50.360;18.742;2023-01-25T03:58:38;100443.59;;;1.78;87.56
55191;BME280;41070;50.360;18.742;2023-01-25T04:01:06;100440.91;;;1.80;87.87
55191;BME280;41070;50.360;18.742;2023-01-25T04:03:34;100434.22;;;1.80;87.95
55191;BME280;41070;50.360;18.742;2023-01-25T04:06:03;100432.59;;;1.80;87.66
55191;BME280;41070;50.360;18.742;2023-01-25T04:08:31;100429.90;;;1.80;87.80
55191;BME280;41070;50.360;18.742;2023-01-25T04:11:01;100426.64;;;1.81;87.32
55191;BME280;41070;50.360;18.742;2023-01-25T04:13:30;100423.36;;;1.81;87.58
55191;BME280;41070;50.360;18.742;2023-01-25T04:16:00;100423.77;;;1.80;87.82
55191;BME280;41070;50.360;18.742;2023-01-25T04:18:28;100422.16;;;1.81;87.48
55191;BME280;41070;50.360;18.742;2023-01-25T04:20:56;100419.55;;;1.80;87.47
55191;BME280;41070;50.360;18.742;2023-01-25T04:23:25;100416.64;;;1.81;87.85
55191;BME280;41070;50.360;18.742;2023-01-25T04:25:58;100416.66;;;1.82;87.46
55191;BME280;41070;50.360;18.742;2023-01-25T04:28:26;100415.50;;;1.82;87.97
55191;BME280;41070;50.360;18.742;2023-01-25T04:30:55;100419.62;;;1.81;87.64
55191;BME280;41070;50.360;18.742;2023-01-25T04:33:23;100415.54;;;1.80;87.59
55191;BME280;41070;50.360;18.742;2023-01-25T04:35:51;100415.21;;;1.79;87.44
55191;BME280;41070;50.360;18.742;2023-01-25T04:38:20;100411.43;;;1.78;87.54
55191;BME280;41070;50.360;18.742;2023-01-25T04:40:49;100410.10;;;1.80;87.63
55191;BME280;41070;50.360;18.742;2023-01-25T04:43:18;100402.90;;;1.80;87.68
55191;BME280;41070;50.360;18.742;2023-01-25T04:45:46;100404.61;;;1.80;87.91
55191;BME280;41070;50.360;18.742;2023-01-25T04:48:14;100402.97;;;1.80;87.80
55191;BME280;41070;50.360;18.742;2023-01-25T04:50:42;100404.53;;;1.78;87.76
55191;BME280;41070;50.360;18.742;2023-01-25T04:53:11;100404.39;;;1.77;87.97
55191;BME280;41070;50.360;18.742;2023-01-25T04:55:38;100402.41;;;1.78;88.09
55191;BME280;41070;50.360;18.742;2023-01-25T04:58:06;100403.05;;;1.78;87.73
55191;BME280;41070;50.360;18.742;2023-01-25T05:00:34;100399.09;;;1.78;87.91
55191;BME280;41070;50.360;18.742;2023-01-25T05:03:02;100403.02;;;1.76;87.74
55191;BME280;41070;50.360;18.742;2023-01-25T05:05:30;100400.48;;;1.76;87.85
55191;BME280;41070;50.360;18.742;2023-01-25T05:07:57;100392.08;;;1.75;87.81
55191;BME280;41070;50.360;18.742;2023-01-25T05:10:25;100389.27;;;1.74;87.67
55191;BME280;41070;50.360;18.742;2023-01-25T05:12:53;100386.38;;;1.73;87.76
55191;BME280;41070;50.360;18.742;2023-01-25T05:15:20;100384.68;;;1.72;87.82
55191;BME280;41070;50.360;18.742;2023-01-25T05:17:48;100382.27;;;1.73;88.09
55191;BME280;41070;50.360;18.742;2023-01-25T05:20:16;100382.02;;;1.74;87.93
55191;BME280;41070;50.360;18.742;2023-01-25T05:22:43;100378.89;;;1.73;87.89
55191;BME280;41070;50.360;18.742;2023-01-25T05:25:11;100375.98;;;1.75;87.99
55191;BME280;41070;50.360;18.742;2023-01-25T05:27:52;100375.52;;;1.77;87.91
55191;BME280;41070;50.360;18.742;2023-01-25T05:30:20;100372.44;;;1.79;87.84
55191;BME280;41070;50.360;18.742;2023-01-25T05:32:49;100372.77;;;1.79;88.09
55191;BME280;41070;50.360;18.742;2023-01-25T05:35:17;100375.11;;;1.81;87.96
55191;BME280;41070;50.360;18.742;2023-01-25T05:37:44;100375.13;;;1.79;87.85
55191;BME280;41070;50.360;18.742;2023-01-25T05:40:12;100377.85;;;1.78;88.19
55191;BME280;41070;50.360;18.742;2023-01-25T05:42:40;100380.11;;;1.77;88.06
55191;BME280;41070;50.360;18.742;2023-01-25T05:45:08;100379.61;;;1.72;87.79
55191;BME280;41070;50.360;18.742;2023-01-25T05:47:36;100380.84;;;1.69;87.89
55191;BME280;41070;50.360;18.742;2023-01-25T05:50:04;100381.48;;;1.67;87.96
55191;BME280;41070;50.360;18.742;2023-01-25T05:52:32;100380.91;;;1.67;88.33
55191;BME280;41070;50.360;18.742;2023-01-25T05:55:00;100381.13;;;1.70;88.30
55191;BME280;41070;50.360;18.742;2023-01-25T05:57:27;100375.16;;;1.70;88.21
55191;BME280;41070;50.360;18.742;2023-01-25T05:59:55;100371.54;;;1.69;87.85
55191;BME280;41070;50.360;18.742;2023-01-25T06:02:22;100366.73;;;1.64;87.85
55191;BME280;41070;50.360;18.742;2023-01-25T06:04:50;100364.05;;;1.63;88.10
55191;BME280;41070;50.360;18.742;2023-01-25T06:07:18;100364.45;;;1.64;88.18
55191;BME280;41070;50.360;18.742;2023-01-25T06:09:46;100363.10;;;1.66;88.10
55191;BME280;41070;50.360;18.742;2023-01-25T06:12:14;100360.55;;;1.68;88.14
55191;BME280;41070;50.360;18.742;2023-01-25T06:14:42;100365.33;;;1.70;88.24
55191;BME280;41070;50.360;18.742;2023-01-25T06:17:09;100365.65;;;1.70;88.22
55191;BME280;41070;50.360;18.742;2023-01-25T06:19:38;100370.86;;;1.72;88.31
55191;BME280;41070;50.360;18.742;2023-01-25T06:22:05;100372.33;;;1.72;88.32
55191;BME280;41070;50.360;18.742;2023-01-25T06:24:34;100365.80;;;1.70;88.18
55191;BME280;41070;50.360;18.742;2023-01-25T06:27:02;100368.80;;;1.69;87.93
55191;BME280;41070;50.360;18.742;2023-01-25T06:29:30;100369.89;;;1.68;88.06
55191;BME280;41070;50.360;18.742;2023-01-25T06:31:57;100367.44;;;1.67;88.01
55191;BME280;41070;50.360;18.742;2023-01-25T06:34:25;100367.83;;;1.68;88.32
55191;BME280;41070;50.360;18.742;2023-01-25T06:36:52;100366.48;;;1.66;88.17
55191;BME280;41070;50.360;18.742;2023-01-25T06:39:20;100364.23;;;1.67;88.26
55191;BME280;41070;50.360;18.742;2023-01-25T06:41:48;100363.91;;;1.70;88.41
55191;BME280;41070;50.360;18.742;2023-01-25T06:44:15;100362.69;;;1.70;88.22
55191;BME280;41070;50.360;18.742;2023-01-25T06:46:43;100365.23;;;1.71;88.20
55191;BME280;41070;50.360;18.742;2023-01-25T06:49:11;100361.01;;;1.71;88.30
55191;BME280;41070;50.360;18.742;2023-01-25T06:51:38;100358.91;;;1.72;88.28
55191;BME280;41070;50.360;18.742;2023-01-25T06:54:06;100358.10;;;1.73;88.45
55191;BME280;41070;50.360;18.742;2023-01-25T06:56:34;100357.62;;;1.73;88.39
55191;BME280;41070;50.360;18.742;2023-01-25T06:59:01;100353.11;;;1.72;88.13
55191;BME280;41070;50.360;18.742;2023-01-25T07:01:29;100348.63;;;1.71;87.92
55191;BME280;41070;50.360;18.742;2023-01-25T07:03:58;100344.52;;;1.73;88.61
55191;BME280;41070;50.360;18.742;2023-01-25T07:06:30;100346.44;;;1.74;87.97
55191;BME280;41070;50.360;18.742;2023-01-25T07:09:04;100343.90;;;1.73;88.27
55191;BME280;41070;50.360;18.742;2023-01-25T07:11:32;100339.69;;;1.74;87.93
55191;BME280;41070;50.360;18.742;2023-01-25T07:14:00;100341.92;;;1.79;88.55
55191;BME280;41070;50.360;18.742;2023-01-25T07:16:28;100334.36;;;1.81;88.26
55191;BME280;41070;50.360;18.742;2023-01-25T07:19:06;100330.42;;;1.80;88.21
55191;BME280;41070;50.360;18.742;2023-01-25T07:21:34;100330.75;;;1.80;87.88
55191;BME280;41070;50.360;18.742;2023-01-25T07:24:03;100329.39;;;1.81;88.41
55191;BME280;41070;50.360;18.742;2023-01-25T07:26:31;100328.73;;;1.83;88.33
55191;BME280;41070;50.360;18.742;2023-01-25T07:29:04;100327.52;;;1.82;88.26
55191;BME280;41070;50.360;18.742;2023-01-25T07:31:36;100320.84;;;1.81;88.29
55191;BME280;41070;50.360;18.742;2023-01-25T07:34:05;100323.05;;;1.82;88.77
55191;BME280;41070;50.360;18.742;2023-01-25T07:36:41;100318.87;;;1.84;88.31
55191;BME280;41070;50.360;18.742;2023-01-25T07:39:12;100319.02;;;1.83;88.15
55191;BME280;41070;50.360;18.742;2023-01-25T07:41:40;100323.58;;;1.84;88.15
55191;BME280;41070;50.360;18.742;2023-01-25T07:44:09;100319.98;;;1.87;88.37
55191;BME280;41070;50.360;18.742;2023-01-25T07:46:38;100321.48;;;1.88;88.19
55191;BME280;41070;50.360;18.742;2023-01-25T07:49:07;100321.77;;;1.90;88.33
55191;BME280;41070;50.360;18.742;2023-01-25T07:51:38;100320.77;;;1.90;88.11
55191;BME280;41070;50.360;18.742;2023-01-25T07:54:09;100321.89;;;1.88;87.88
55191;BME280;41070;50.360;18.742;2023-01-25T07:56:42;100319.54;;;1.86;88.18
55191;BME280;41070;50.360;18.742;2023-01-25T07:59:14;100316.69;;;1.86;88.32
55191;BME280;41070;50.360;18.742;2023-01-25T08:01:42;100315.34;;;1.88;88.31
55191;BME280;41070;50.360;18.742;2023-01-25T08:04:11;100315.73;;;1.90;88.57
55191;BME280;41070;50.360;18.742;2023-01-25T08:06:48;100309.36;;;1.90;88.87
55191;BME280;41070;50.360;18.742;2023-01-25T08:09:21;100312.27;;;1.95;88.70
55191;BME280;41070;50.360;18.742;2023-01-25T08:11:57;100311.54;;;1.95;88.56
55191;BME280;41070;50.360;18.742;2023-01-25T08:14:32;100310.15;;;1.94;88.15
55191;BME280;41070;50.360;18.742;2023-01-25T08:17:03;100310.50;;;1.92;88.22
55191;BME280;41070;50.360;18.742;2023-01-25T08:19:32;100309.01;;;1.91;88.21
55191;BME280;41070;50.360;18.742;2023-01-25T08:22:09;100303.17;;;1.93;88.40
55191;BME280;41070;50.360;18.742;2023-01-25T08:24:40;100298.64;;;1.95;88.60
55191;BME280;41070;50.360;18.742;2023-01-25T08:27:08;100295.73;;;2.02;88.60
55191;BME280;41070;50.360;18.742;2023-01-25T08:29:42;100296.92;;;2.05;88.69
55191;BME280;41070;50.360;18.742;2023-01-25T08:32:37;100294.74;;;2.04;88.43
55191;BME280;41070;50.360;18.742;2023-01-25T08:35:10;100289.48;;;2.05;88.75
55191;BME280;41070;50.360;18.742;2023-01-25T08:37:39;100289.53;;;2.08;88.78
55191;BME280;41070;50.360;18.742;2023-01-25T08:40:12;100282.25;;;2.08;88.79
55191;BME280;41070;50.360;18.742;2023-01-25T08:42:43;100276.45;;;2.09;88.42
55191;BME280;41070;50.360;18.742;2023-01-25T08:45:13;100278.17;;;2.12;88.62
55191;BME280;41070;50.360;18.742;2023-01-25T08:47:42;100276.64;;;2.11;88.18
55191;BME280;41070;50.360;18.742;2023-01-25T08:50:14;100278.77;;;2.06;88.39
55191;BME280;41070;50.360;18.742;2023-01-25T08:52:46;100277.84;;;2.03;88.49
55191;BME280;41070;50.360;18.742;2023-01-25T08:55:14;100275.71;;;2.02;88.39
55191;BME280;41070;50.360;18.742;2023-01-25T08:57:45;100277.45;;;2.01;88.25
55191;BME280;41070;50.360;18.742;2023-01-25T09:00:24;100273.77;;;2.02;88.28
55191;BME280;41070;50.360;18.742;2023-01-25T09:02:52;100271.92;;;2.03;88.58
55191;BME280;41070;50.360;18.742;2023-01-25T09:05:22;100266.17;;;2.07;88.47
55191;BME280;41070;50.360;18.742;2023-01-25T09:07:53;100270.02;;;2.07;87.92
55191;BME280;41070;50.360;18.742;2023-01-25T09:13:57;100267.88;;;1.92;87.81
55191;BME280;41070;50.360;18.742;2023-01-25T09:16:25;100262.95;;;1.87;88.25
55191;BME280;41070;50.360;18.742;2023-01-25T09:18:57;100262.30;;;1.81;87.66
55191;BME280;41070;50.360;18.742;2023-01-25T09:21:26;100261.46;;;1.75;87.75
55191;BME280;41070;50.360;18.742;2023-01-25T09:23:54;100259.32;;;1.72;87.74
55191;BME280;41070;50.360;18.742;2023-01-25T09:26:22;100254.38;;;1.73;88.01
55191;BME280;41070;50.360;18.742;2023-01-25T09:28:51;100252.14;;;1.73;87.85
55191;BME280;41070;50.360;18.742;2023-01-25T09:31:20;100249.80;;;1.74;88.24
55191;BME280;41070;50.360;18.742;2023-01-25T09:33:49;100242.42;;;1.76;88.07
55191;BME280;41070;50.360;18.742;2023-01-25T09:36:18;100238.63;;;1.79;87.97
55191;BME280;41070;50.360;18.742;2023-01-25T09:38:48;100237.02;;;1.83;88.22
55191;BME280;41070;50.360;18.742;2023-01-25T09:44:41;100233.97;;;1.91;88.64
55191;BME280;41070;50.360;18.742;2023-01-25T09:47:19;100229.34;;;1.97;88.73
55191;BME280;41070;50.360;18.742;2023-01-25T09:55:32;100215.85;;;2.03;88.10
55191;BME280;41070;50.360;18.742;2023-01-25T09:58:03;100215.88;;;2.02;88.23
55191;BME280;41070;50.360;18.742;2023-01-25T10:00:36;100216.10;;;2.03;88.45
55191;BME280;41070;50.360;18.742;2023-01-25T10:05:45;100207.34;;;2.03;88.47
55191;BME280;41070;50.360;18.742;2023-01-25T10:11:23;100199.56;;;2.07;88.27
55191;BME280;41070;50.360;18.742;2023-01-25T10:13:53;100196.17;;;2.09;88.52
55191;BME280;41070;50.360;18.742;2023-01-25T10:16:23;100187.11;;;2.11;88.35
55191;BME280;41070;50.360;18.742;2023-01-25T10:19:45;100186.52;;;2.10;88.17
55191;BME280;41070;50.360;18.742;2023-01-25T10:21:50;100187.29;;;2.13;88.38
55191;BME280;41070;50.360;18.742;2023-01-25T10:27:06;100186.29;;;2.24;88.40
55191;BME280;41070;50.360;18.742;2023-01-25T10:29:37;100184.20;;;2.26;88.33
55191;BME280;41070;50.360;18.742;2023-01-25T10:35:20;100167.41;;;2.31;87.89
55191;BME280;41070;50.360;18.742;2023-01-25T10:37:49;100170.86;;;2.34;88.02
55191;BME280;41070;50.360;18.742;2023-01-25T10:40:22;100174.13;;;2.32;87.70
55191;BME280;41070;50.360;18.742;2023-01-25T10:42:56;100172.45;;;2.29;87.37
55191;BME280;41070;50.360;18.742;2023-01-25T10:45:50;100158.13;;;2.23;87.43
55191;BME280;41070;50.360;18.742;2023-01-25T10:48:27;100159.90;;;2.25;87.93
55191;BME280;41070;50.360;18.742;2023-01-25T10:51:06;100154.79;;;2.26;87.67
55191;BME280;41070;50.360;18.742;2023-01-25T10:53:38;100149.27;;;2.29;87.85
55191;BME280;41070;50.360;18.742;2023-01-25T10:56:23;100146.80;;;2.31;87.63
55191;BME280;41070;50.360;18.742;2023-01-25T10:59:04;100137.98;;;2.32;87.49
55191;BME280;41070;50.360;18.742;2023-01-25T11:01:34;100138.35;;;2.32;87.82
55191;BME280;41070;50.360;18.742;2023-01-25T11:04:22;100135.08;;;2.31;87.06
55191;BME280;41070;50.360;18.742;2023-01-25T11:06:52;100128.91;;;2.28;86.87
55191;BME280;41070;50.360;18.742;2023-01-25T11:11:55;100124.70;;;2.28;87.18
55191;BME280;41070;50.360;18.742;2023-01-25T11:14:26;100119.85;;;2.30;86.50
55191;BME280;41070;50.360;18.742;2023-01-25T11:16:59;100115.58;;;2.31;86.48
55191;BME280;41070;50.360;18.742;2023-01-25T11:19:31;100109.52;;;2.32;86.03
55191;BME280;41070;50.360;18.742;2023-01-25T11:22:02;100106.19;;;2.27;85.40
55191;BME280;41070;50.360;18.742;2023-01-25T11:24:33;100106.80;;;2.18;85.50
55191;BME280;41070;50.360;18.742;2023-01-25T11:27:30;100103.16;;;2.14;85.68
55191;BME280;41070;50.360;18.742;2023-01-25T11:30:09;100100.14;;;2.13;85.47
55191;BME280;41070;50.360;18.742;2023-01-25T11:32:38;100097.05;;;2.11;85.08
55191;BME280;41070;50.360;18.742;2023-01-25T11:35:20;100089.23;;;2.12;85.42
55191;BME280;41070;50.360;18.742;2023-01-25T11:40:40;100072.36;;;2.07;85.37
55191;BME280;41070;50.360;18.742;2023-01-25T12:00:33;100030.45;;;2.23;84.33
55191;BME280;41070;50.360;18.742;2023-01-25T12:03:11;100034.26;;;2.11;84.10
55191;BME280;41070;50.360;18.742;2023-01-25T12:06:21;100026.48;;;2.04;84.39
55191;BME280;41070;50.360;18.742;2023-01-25T12:25:40;100011.45;;;1.92;84.81
55191;BME280;41070;50.360;18.742;2023-01-25T12:28:18;100005.42;;;1.93;84.55
55191;BME280;41070;50.360;18.742;2023-01-25T12:33:40;100000.29;;;1.86;84.57
55191;BME280;41070;50.360;18.742;2023-01-25T12:36:22;99996.17;;;1.87;84.39
55191;BME280;41070;50.360;18.742;2023-01-25T12:44:23;99981.14;;;1.81;83.99
55191;BME280;41070;50.360;18.742;2023-01-25T12:47:13;99987.15;;;1.81;84.01
55191;BME280;41070;50.360;18.742;2023-01-25T12:49:47;99982.98;;;1.79;83.87
55191;BME280;41070;50.360;18.742;2023-01-25T12:53:01;99981.78;;;1.82;83.85
55191;BME280;41070;50.360;18.742;2023-01-25T12:55:15;99983.23;;;1.85;84.03
55191;BME280;41070;50.360;18.742;2023-01-25T12:58:06;99975.95;;;1.92;83.80
55191;BME280;41070;50.360;18.742;2023-01-25T13:00:56;99971.05;;;1.99;83.65
55191;BME280;41070;50.360;18.742;2023-01-25T13:06:08;99965.14;;;2.00;83.19
55191;BME280;41070;50.360;18.742;2023-01-25T13:11:36;99955.89;;;2.19;83.28
55191;BME280;41070;50.360;18.742;2023-01-25T13:16:51;99951.51;;;2.25;82.54
55191;BME280;41070;50.360;18.742;2023-01-25T13:21:46;99946.02;;;2.11;82.11
55191;BME280;41070;50.360;18.742;2023-01-25T13:24:25;99945.90;;;2.04;82.16
55191;BME280;41070;50.360;18.742;2023-01-25T13:31:58;99940.02;;;1.81;81.91
55191;BME280;41070;50.360;18.742;2023-01-25T13:39:48;99927.49;;;1.74;82.15
55191;BME280;41070;50.360;18.742;2023-01-25T13:42:23;99922.55;;;1.75;81.99
55191;BME280;41070;50.360;18.742;2023-01-25T13:45:20;99921.13;;;1.75;82.18
55191;BME280;41070;50.360;18.742;2023-01-25T13:48:03;99917.55;;;1.77;82.40
55191;BME280;41070;50.360;18.742;2023-01-25T13:50:33;99911.08;;;1.74;81.96
55191;BME280;41070;50.360;18.742;2023-01-25T13:53:16;99911.52;;;1.69;81.44
55191;BME280;41070;50.360;18.742;2023-01-25T13:55:47;99903.55;;;1.64;81.73
55191;BME280;41070;50.360;18.742;2023-01-25T13:58:21;99902.34;;;1.63;82.25
55191;BME280;41070;50.360;18.742;2023-01-25T14:00:58;99900.84;;;1.61;81.95
55191;BME280;41070;50.360;18.742;2023-01-25T14:03:29;99895.25;;;1.56;82.04
55191;BME280;41070;50.360;18.742;2023-01-25T14:05:57;99894.55;;;1.54;82.13
55191;BME280;41070;50.360;18.742;2023-01-25T14:08:32;99892.41;;;1.57;82.38
55191;BME280;41070;50.360;18.742;2023-01-25T14:10:58;99895.48;;;1.57;82.03
55191;BME280;41070;50.360;18.742;2023-01-25T14:13:25;99894.40;;;1.55;81.95
55191;BME280;41070;50.360;18.742;2023-01-25T14:15:59;99895.98;;;1.55;81.83
55191;BME280;41070;50.360;18.742;2023-01-25T14:18:32;99895.77;;;1.53;81.79
55191;BME280;41070;50.360;18.742;2023-01-25T14:21:15;99896.20;;;1.50;81.93
55191;BME280;41070;50.360;18.742;2023-01-25T14:23:42;99890.32;;;1.47;81.55
55191;BME280;41070;50.360;18.742;2023-01-25T14:26:21;99886.98;;;1.45;81.79
55191;BME280;41070;50.360;18.742;2023-01-25T14:28:54;99889.92;;;1.43;81.69
55191;BME280;41070;50.360;18.742;2023-01-25T14:31:24;99883.42;;;1.43;81.81
55191;BME280;41070;50.360;18.742;2023-01-25T14:33:51;99886.65;;;1.44;82.08
55191;BME280;41070;50.360;18.742;2023-01-25T14:36:28;99876.79;;;1.44;81.96
55191;BME280;41070;50.360;18.742;2023-01-25T14:38:55;99875.04;;;1.43;82.07
55191;BME280;41070;50.360;18.742;2023-01-25T14:41:26;99868.97;;;1.44;82.33
55191;BME280;41070;50.360;18.742;2023-01-25T14:43:56;99864.71;;;1.44;82.08
55191;BME280;41070;50.360;18.742;2023-01-25T14:51:48;99855.67;;;1.37;81.89
55191;BME280;41070;50.360;18.742;2023-01-25T14:54:16;99854.14;;;1.36;81.56